createdAt,value
2023-03-26T00:03:10.821Z,992.02
2023-03-26T00:08:56.786Z,991.98
2023-03-26T00:14:41.356Z,991.88
2023-03-26T00:20:26.069Z,991.78
2023-03-26T00:26:11.069Z,991.76
2023-03-26T00:31:56.572Z,991.74
2023-03-26T00:37:41.134Z,991.58
2023-03-26T00:43:25.805Z,991.49
2023-03-26T00:49:10.222Z,991.36
2023-03-26T00:54:56.295Z,991.2
2023-03-26T01:00:46.819Z,991.15
2023-03-26T01:06:32.601Z,991.06
2023-03-26T01:12:22.401Z,990.97
2023-03-26T01:18:07.215Z,990.86
2023-03-26T01:23:57.619Z,990.73
2023-03-26T01:29:45.481Z,990.65
2023-03-26T01:35:35.565Z,990.5
2023-03-26T01:41:22.724Z,990.5
2023-03-26T01:47:11.896Z,990.41
2023-03-26T01:52:56.699Z,990.26
2023-03-26T01:58:46.282Z,990.03
2023-03-26T02:04:33.480Z,990
2023-03-26T02:10:20.759Z,989.79
2023-03-26T02:16:07.143Z,989.74
2023-03-26T02:21:51.925Z,989.57
2023-03-26T02:27:36.612Z,989.48
2023-03-26T02:33:21.059Z,989.36
2023-03-26T02:39:06.090Z,989.1
2023-03-26T02:44:50.678Z,989.04
2023-03-26T02:50:35.194Z,988.92
2023-03-26T02:56:19.894Z,988.8
2023-03-26T03:02:04.732Z,988.58
2023-03-26T03:07:49.322Z,988.42
2023-03-26T03:13:33.726Z,988.32
2023-03-26T03:19:18.306Z,988.23
2023-03-26T03:25:04.382Z,988.07
2023-03-26T03:30:50.176Z,987.88
2023-03-26T03:36:34.784Z,987.83
2023-03-26T03:42:19.514Z,987.66
2023-03-26T03:48:05.691Z,987.56
2023-03-26T03:53:51.225Z,987.45
2023-03-26T03:59:35.715Z,987.35
2023-03-26T04:05:20.350Z,987.29
2023-03-26T04:11:05.088Z,987.17
2023-03-26T04:16:49.621Z,987.05
2023-03-26T04:22:34.312Z,986.81
2023-03-26T04:28:23.994Z,986.73
2023-03-26T04:34:10.148Z,986.62
2023-03-26T04:39:54.849Z,986.48
2023-03-26T04:45:39.475Z,986.41
2023-03-26T04:51:26.057Z,986.39
2023-03-26T04:57:14.792Z,986.23
2023-03-26T05:02:59.574Z,986.09
2023-03-26T05:08:44.379Z,985.97
2023-03-26T05:14:28.866Z,985.88
2023-03-26T05:20:17.294Z,985.81
2023-03-26T05:26:02.373Z,985.69
2023-03-26T05:31:47.893Z,985.5
2023-03-26T05:37:34.016Z,985.33
2023-03-26T05:43:18.899Z,985.26
2023-03-26T05:49:05.011Z,985.15
2023-03-26T05:54:49.482Z,985.03
2023-03-26T06:00:34.201Z,984.85
2023-03-26T06:06:23.600Z,984.64
2023-03-26T06:12:09.162Z,984.47
2023-03-26T06:17:53.700Z,984.34
2023-03-26T06:23:38.561Z,984.14
2023-03-26T06:29:23.224Z,983.98
2023-03-26T06:35:08.187Z,983.86
2023-03-26T06:40:53.381Z,983.78
2023-03-26T06:46:38.718Z,983.72
2023-03-26T06:52:23.495Z,983.48
2023-03-26T06:58:08.134Z,983.38
2023-03-26T07:03:52.635Z,983.3
2023-03-26T07:09:42.264Z,983.22
2023-03-26T07:15:28.646Z,983.07
2023-03-26T07:21:14.220Z,983.03
2023-03-26T07:27:03.441Z,982.91
2023-03-26T07:32:54.142Z,982.7
2023-03-26T07:38:46.638Z,982.79
2023-03-26T07:44:38.118Z,982.68
2023-03-26T07:50:23.969Z,982.55
2023-03-26T07:56:14.649Z,982.66
2023-03-26T08:02:10.476Z,982.55
2023-03-26T08:08:01.817Z,982.49
2023-03-26T08:13:53.013Z,982.49
2023-03-26T08:19:49.246Z,982.48
2023-03-26T08:25:38.449Z,982.53
2023-03-26T08:31:30.440Z,982.55
2023-03-26T08:37:15.337Z,982.61
2023-03-26T08:43:11.194Z,982.63
2023-03-26T08:49:14.358Z,982.74
2023-03-26T08:55:07.200Z,982.84
2023-03-26T09:01:02.074Z,982.91
2023-03-26T09:07:01.155Z,982.98
2023-03-26T09:12:54.975Z,983.09
2023-03-26T09:18:56.601Z,983.12
2023-03-26T09:24:59.416Z,983.23
2023-03-26T09:30:53.161Z,983.23
2023-03-26T09:36:49.766Z,983.24
2023-03-26T09:42:38.593Z,983.32
2023-03-26T09:48:46.623Z,983.44
2023-03-26T09:54:44.531Z,983.48
2023-03-26T10:00:35.756Z,983.69
2023-03-26T10:06:28.521Z,983.87
2023-03-26T10:12:19.990Z,983.89
2023-03-26T10:18:26.821Z,984.01
2023-03-26T10:24:19.965Z,984.1
2023-03-26T10:30:13.150Z,984.11
2023-03-26T10:36:03.756Z,984.24
2023-03-26T10:41:52.632Z,984.29
2023-03-26T10:47:50.990Z,984.34
2023-03-26T10:53:38.475Z,984.42
2023-03-26T10:59:23.170Z,984.39
2023-03-26T11:05:18.930Z,984.45
2023-03-26T11:11:06.166Z,984.51
2023-03-26T11:16:58.669Z,984.52
2023-03-26T11:22:47.954Z,984.6
2023-03-26T11:29:03.174Z,984.67
2023-03-26T11:34:51.783Z,984.67
2023-03-26T11:40:38.435Z,984.75
2023-03-26T11:46:24.795Z,984.74
2023-03-26T11:52:11.058Z,984.87
2023-03-26T11:57:59.377Z,984.9
2023-03-26T12:03:44.659Z,985
2023-03-26T12:09:29.157Z,985.06
2023-03-26T12:15:18.017Z,985.11
2023-03-26T12:21:10.597Z,985.1
2023-03-26T12:26:57.569Z,985.18
2023-03-26T12:32:47.828Z,985.22
2023-03-26T12:38:37.463Z,985.3
2023-03-26T12:44:52.394Z,985.43
2023-03-26T12:50:36.956Z,985.34
2023-03-26T12:56:28.040Z,985.43
2023-03-26T13:02:23.677Z,985.58
2023-03-26T13:08:15.978Z,985.74
2023-03-26T13:14:06.947Z,985.81
2023-03-26T13:19:53.358Z,985.87
2023-03-26T13:25:44.074Z,985.98
2023-03-26T13:31:34.385Z,985.99
2023-03-26T13:37:23.802Z,986.06
2023-03-26T13:43:22.591Z,986.05
2023-03-26T13:49:11.668Z,986.18
2023-03-26T13:55:01.750Z,986.25
2023-03-26T14:00:52.087Z,986.38
2023-03-26T14:06:41.579Z,986.49
2023-03-26T14:12:37.624Z,986.63
2023-03-26T14:18:32.201Z,986.68
2023-03-26T14:24:28.916Z,986.81
2023-03-26T14:30:27.292Z,986.86
2023-03-26T14:36:16.886Z,986.95
2023-03-26T14:42:03.540Z,987.04
2023-03-26T14:47:51.839Z,987.17
2023-03-26T14:53:39.178Z,987.3
2023-03-26T14:59:43.784Z,987.43
2023-03-26T15:05:49.001Z,987.59
2023-03-26T15:11:40.278Z,987.74
2023-03-26T15:17:42.082Z,987.84
2023-03-26T15:23:46.649Z,987.97
2023-03-26T15:29:43.243Z,988.07
2023-03-26T15:35:39.660Z,988.11
2023-03-26T15:41:29.305Z,988.26
2023-03-26T15:47:27.382Z,988.3
2023-03-26T15:53:18.770Z,988.41
2023-03-26T15:59:08.195Z,988.52
2023-03-26T16:04:54.644Z,988.63
2023-03-26T16:10:42.923Z,988.79
2023-03-26T16:16:38.367Z,988.84
2023-03-26T16:22:42.607Z,988.97
2023-03-26T16:28:35.253Z,989.04
2023-03-26T16:34:27.964Z,989.17
2023-03-26T16:40:23.790Z,989.3
2023-03-26T16:46:12.225Z,989.42
2023-03-26T16:52:01.865Z,989.54
2023-03-26T16:57:51.215Z,989.65
2023-03-26T17:03:42.569Z,989.75
2023-03-26T17:09:34.547Z,989.86
2023-03-26T17:15:25.795Z,989.98
2023-03-26T17:21:15.088Z,990.11
2023-03-26T17:27:02.785Z,990.38
2023-03-26T17:32:58.406Z,990.49
2023-03-26T17:39:00.420Z,990.63
2023-03-26T17:44:47.110Z,990.82
2023-03-26T17:50:34.403Z,990.9
2023-03-26T17:56:22.490Z,991.02
2023-03-26T18:02:13.581Z,991.15
2023-03-26T18:08:18.879Z,991.32
2023-03-26T18:14:21.272Z,991.46
2023-03-26T18:20:08.204Z,991.6
2023-03-26T18:25:56.980Z,991.64
2023-03-26T18:31:42.354Z,991.8
2023-03-26T18:37:28.254Z,991.93
2023-03-26T18:43:34.320Z,992.12
2023-03-26T18:49:23.862Z,992.19
2023-03-26T18:55:12.230Z,992.39
2023-03-26T19:00:57.901Z,992.46
2023-03-26T19:06:43.866Z,992.58
2023-03-26T19:12:29.269Z,992.71
2023-03-26T19:18:17.489Z,992.86
2023-03-26T19:24:02.868Z,993.02
2023-03-26T19:29:48.482Z,993.15
2023-03-26T19:35:37.545Z,993.3
2023-03-26T19:41:25.015Z,993.47
2023-03-26T19:47:17.172Z,993.57
2023-03-26T19:53:17.620Z,993.74
2023-03-26T19:59:02.638Z,993.77
2023-03-26T20:04:47.084Z,993.9
2023-03-26T20:10:31.681Z,993.96
2023-03-26T20:16:19.736Z,994.1
2023-03-26T20:22:04.347Z,994.3
2023-03-26T20:27:50.810Z,994.58
2023-03-26T20:33:35.680Z,994.7
2023-03-26T20:39:20.504Z,994.84
2023-03-26T20:45:12.345Z,994.96
2023-03-26T20:50:56.994Z,995.13
2023-03-26T20:56:41.480Z,995.25
2023-03-26T21:02:26.356Z,995.32
2023-03-26T21:08:14.774Z,995.57
2023-03-26T21:14:02.410Z,995.61
2023-03-26T21:19:47.839Z,995.77
2023-03-26T21:25:36.726Z,995.91
2023-03-26T21:31:22.408Z,996.01
2023-03-26T21:37:07.333Z,996.06
2023-03-26T21:42:53.358Z,996.16
2023-03-26T21:48:38.319Z,996.31
2023-03-26T21:54:28.698Z,996.43
2023-03-26T22:00:16.263Z,996.58
2023-03-26T22:06:04.486Z,996.66
2023-03-26T22:11:50.208Z,996.75
2023-03-26T22:17:34.828Z,996.93
2023-03-26T22:23:20.013Z,997.05
2023-03-26T22:29:04.896Z,997.15
2023-03-26T22:34:49.446Z,997.17
2023-03-26T22:40:34.071Z,997.29
2023-03-26T22:46:18.785Z,997.45
2023-03-26T22:52:03.571Z,997.62
2023-03-26T22:57:48.079Z,997.72
2023-03-26T23:03:36.642Z,997.88
2023-03-26T23:09:21.333Z,997.96
2023-03-26T23:15:07.011Z,998.03
2023-03-26T23:20:56.218Z,998.15
2023-03-26T23:26:50.339Z,998.29
2023-03-26T23:32:35.208Z,998.37
2023-03-26T23:38:19.770Z,998.53
2023-03-26T23:44:04.595Z,998.7
2023-03-26T23:49:49.113Z,998.82
2023-03-26T23:55:34.229Z,998.87
